createdAt,value
2019-02-15T00:01:39.537Z,4.50
2019-02-15T00:04:08.069Z,4.00
2019-02-15T00:06:36.523Z,4.33
2019-02-15T00:09:05.543Z,4.20
2019-02-15T00:11:35.973Z,4.73
2019-02-15T00:14:04.284Z,5.33
2019-02-15T00:16:33.148Z,4.77
2019-02-15T00:19:16.401Z,4.97
2019-02-15T00:21:47.406Z,4.83
2019-02-15T00:24:15.993Z,5.63
2019-02-15T00:26:44.401Z,6.00
2019-02-15T00:29:12.740Z,6.57
2019-02-15T00:31:41.067Z,5.95
2019-02-15T00:34:09.616Z,6.47
2019-02-15T00:36:38.609Z,6.47
2019-02-15T00:39:07.441Z,6.90
2019-02-15T00:41:38.131Z,6.67
2019-02-15T00:44:06.734Z,6.80
2019-02-15T00:47:00.973Z,7.03
2019-02-15T00:49:34.972Z,5.67
2019-02-15T00:52:32.164Z,5.67
2019-02-15T00:55:09.030Z,5.63
2019-02-15T00:57:56.878Z,5.40
2019-02-15T01:00:51.753Z,5.37
2019-02-15T01:03:42.486Z,4.87
2019-02-15T01:06:30.830Z,4.83
2019-02-15T01:09:09.644Z,4.67
2019-02-15T01:11:58.306Z,5.10
2019-02-15T01:14:26.845Z,5.03
2019-02-15T01:16:55.982Z,5.00
2019-02-15T01:19:24.597Z,4.93
2019-02-15T01:21:53.196Z,5.03
2019-02-15T01:24:21.734Z,4.37
2019-02-15T01:26:57.453Z,4.87
2019-02-15T01:29:45.205Z,4.70
2019-02-15T01:32:32.029Z,4.73
2019-02-15T01:35:22.836Z,4.47
2019-02-15T01:38:01.289Z,4.50
2019-02-15T01:41:01.983Z,4.43
2019-02-15T01:43:48.384Z,4.17
2019-02-15T01:46:27.322Z,5.53
2019-02-15T01:48:55.979Z,5.30
2019-02-15T01:51:24.505Z,4.70
2019-02-15T01:53:53.961Z,5.00
2019-02-15T01:56:22.527Z,5.00
2019-02-15T01:58:51.356Z,4.67
2019-02-15T02:01:23.093Z,4.70
2019-02-15T02:03:52.105Z,4.83
2019-02-15T02:06:21.105Z,5.07
2019-02-15T02:08:49.788Z,4.97
2019-02-15T02:11:18.416Z,4.73
2019-02-15T02:13:49.658Z,4.37
2019-02-15T02:16:17.219Z,5.40
2019-02-15T02:18:45.910Z,4.73
2019-02-15T02:21:15.281Z,4.30
2019-02-15T02:23:43.704Z,4.77
2019-02-15T02:26:12.236Z,4.60
2019-02-15T02:28:41.410Z,4.90
2019-02-15T02:31:10.413Z,4.63
2019-02-15T02:33:39.246Z,4.80
2019-02-15T02:36:07.905Z,4.47
2019-02-15T02:38:36.616Z,4.27
2019-02-15T02:41:05.405Z,4.80
2019-02-15T02:43:59.380Z,5.20
2019-02-15T02:46:23.670Z,4.30
2019-02-15T02:48:52.165Z,3.90
2019-02-15T02:51:20.905Z,3.90
2019-02-15T02:53:49.454Z,3.93
2019-02-15T02:56:18.114Z,3.67
2019-02-15T02:58:48.087Z,4.80
2019-02-15T03:01:16.709Z,4.50
2019-02-15T03:03:45.298Z,4.37
2019-02-15T03:06:13.716Z,4.03
2019-02-15T03:08:42.196Z,4.03
2019-02-15T03:11:10.972Z,3.97
2019-02-15T03:13:39.538Z,4.20
2019-02-15T03:16:08.170Z,3.83
2019-02-15T03:18:36.529Z,3.90
2019-02-15T03:21:04.910Z,4.63
2019-02-15T03:23:34.093Z,4.53
2019-02-15T03:26:02.558Z,4.03
2019-02-15T03:28:31.335Z,4.07
2019-02-15T03:30:59.605Z,4.70
2019-02-15T03:33:28.097Z,4.53
2019-02-15T03:36:02.126Z,4.93
2019-02-15T03:38:50.693Z,4.43
2019-02-15T03:41:26.553Z,4.27
2019-02-15T03:43:56.022Z,5.07
2019-02-15T03:46:25.313Z,3.87
2019-02-15T03:48:54.048Z,3.33
2019-02-15T03:51:22.681Z,4.00
2019-02-15T03:53:51.419Z,3.90
2019-02-15T03:56:20.049Z,6.47
2019-02-15T03:58:48.458Z,5.03
2019-02-15T04:01:16.759Z,4.87
2019-02-15T04:03:45.221Z,5.07
2019-02-15T04:06:13.974Z,4.47
2019-02-15T04:08:42.650Z,4.80
2019-02-15T04:11:11.605Z,4.30
2019-02-15T04:13:40.562Z,3.87
2019-02-15T04:16:08.805Z,3.50
2019-02-15T04:18:37.349Z,4.00
2019-02-15T04:21:06.043Z,3.10
2019-02-15T04:23:34.791Z,3.90
2019-02-15T04:26:03.245Z,3.73
2019-02-15T04:28:31.757Z,4.00
2019-02-15T04:31:00.785Z,3.03
2019-02-15T04:33:29.443Z,4.13
2019-02-15T04:35:57.670Z,3.45
2019-02-15T04:38:26.199Z,3.60
2019-02-15T04:40:54.529Z,4.00
2019-02-15T04:43:22.885Z,3.70
2019-02-15T04:45:51.544Z,3.57
2019-02-15T04:48:19.937Z,3.30
2019-02-15T04:50:48.356Z,3.70
2019-02-15T04:53:17.115Z,3.50
2019-02-15T04:55:46.258Z,3.50
2019-02-15T04:58:15.106Z,3.90
2019-02-15T05:00:44.966Z,3.73
2019-02-15T05:03:13.700Z,4.20
2019-02-15T05:05:42.337Z,4.13
2019-02-15T05:08:10.676Z,3.97
2019-02-15T05:10:39.297Z,3.83
2019-02-15T05:13:26.980Z,3.70
2019-02-15T05:15:55.713Z,3.93
2019-02-15T05:18:24.132Z,4.00
2019-02-15T05:20:52.777Z,4.67
2019-02-15T05:23:21.472Z,4.30
2019-02-15T05:25:50.121Z,5.43
2019-02-15T05:28:18.661Z,4.57
2019-02-15T05:30:46.936Z,4.70
2019-02-15T05:33:15.438Z,4.00
2019-02-15T05:35:44.068Z,3.80
2019-02-15T05:38:12.469Z,4.67
2019-02-15T05:40:40.834Z,5.27
2019-02-15T05:43:09.157Z,4.67
2019-02-15T05:45:37.946Z,4.30
2019-02-15T05:48:06.887Z,4.60
2019-02-15T05:50:35.217Z,5.27
2019-02-15T05:53:03.747Z,4.87
2019-02-15T05:55:32.533Z,4.60
2019-02-15T05:58:00.971Z,4.93
2019-02-15T06:00:36.772Z,4.83
2019-02-15T06:02:59.977Z,4.47
2019-02-15T06:05:28.549Z,4.20
2019-02-15T06:08:23.172Z,4.13
2019-02-15T06:10:51.745Z,3.60
2019-02-15T06:13:20.141Z,3.67
2019-02-15T06:15:48.449Z,4.07
2019-02-15T06:18:17.284Z,5.30
2019-02-15T06:20:46.609Z,4.23
2019-02-15T06:23:15.577Z,4.17
2019-02-15T06:25:44.178Z,4.60
2019-02-15T06:28:12.995Z,4.97
2019-02-15T06:30:41.585Z,6.20
2019-02-15T06:33:10.877Z,5.60
2019-02-15T06:35:39.266Z,5.90
2019-02-15T06:38:08.306Z,5.70
2019-02-15T06:40:36.990Z,6.60
2019-02-15T06:43:05.983Z,5.20
2019-02-15T06:45:34.619Z,5.60
2019-02-15T06:48:03.643Z,4.97
2019-02-15T06:50:31.940Z,4.30
2019-02-15T06:53:00.337Z,5.07
2019-02-15T06:55:29.105Z,5.10
2019-02-15T06:57:57.905Z,5.03
2019-02-15T07:00:48.902Z,6.55
2019-02-15T07:03:26.077Z,7.33
2019-02-15T07:05:54.546Z,6.97
2019-02-15T07:08:23.197Z,7.03
2019-02-15T07:10:51.869Z,7.43
2019-02-15T07:13:20.569Z,7.47
2019-02-15T07:15:49.624Z,7.33
2019-02-15T07:18:18.253Z,8.33
2019-02-15T07:21:12.180Z,7.40
2019-02-15T07:23:41.173Z,6.93
2019-02-15T07:26:10.109Z,7.07
2019-02-15T07:28:38.385Z,6.30
2019-02-15T07:31:06.972Z,6.27
2019-02-15T07:33:36.054Z,6.43
2019-02-15T07:36:04.885Z,6.20
2019-02-15T07:38:33.902Z,6.10
2019-02-15T07:41:02.841Z,6.27
2019-02-15T07:43:31.437Z,5.40
2019-02-15T07:46:00.002Z,5.73
2019-02-15T07:48:28.461Z,5.83
2019-02-15T07:50:57.309Z,5.30
2019-02-15T07:53:26.077Z,5.43
2019-02-15T07:55:54.663Z,4.80
2019-02-15T07:58:22.997Z,5.43
2019-02-15T08:00:51.612Z,6.13
2019-02-15T08:03:20.035Z,5.20
2019-02-15T08:05:48.513Z,4.80
2019-02-15T08:08:17.033Z,5.47
2019-02-15T08:10:45.610Z,4.70
2019-02-15T08:13:15.445Z,5.33
2019-02-15T08:15:51.534Z,5.47
2019-02-15T08:18:14.001Z,5.40
2019-02-15T08:21:01.836Z,6.10
2019-02-15T08:23:30.433Z,4.50
2019-02-15T08:25:58.741Z,4.67
2019-02-15T08:28:27.491Z,4.20
2019-02-15T08:30:56.524Z,4.60
2019-02-15T08:33:44.006Z,4.63
2019-02-15T08:36:12.338Z,4.33
2019-02-15T08:38:40.729Z,4.80
2019-02-15T08:41:09.065Z,3.70
2019-02-15T08:43:39.057Z,3.70
2019-02-15T08:46:07.792Z,3.30
2019-02-15T08:48:45.595Z,3.30
2019-02-15T08:51:06.785Z,3.60
2019-02-15T08:53:35.386Z,3.13
2019-02-15T08:56:03.885Z,3.60
2019-02-15T08:58:32.353Z,3.50
2019-02-15T09:01:00.726Z,3.20
2019-02-15T09:03:29.301Z,3.10
2019-02-15T09:05:57.841Z,3.77
2019-02-15T09:08:26.780Z,2.70
2019-02-15T09:10:55.270Z,3.37
2019-02-15T09:13:24.120Z,3.23
2019-02-15T09:15:52.553Z,3.10
2019-02-15T09:18:21.413Z,3.17
2019-02-15T09:20:50.101Z,2.57
2019-02-15T09:23:18.561Z,3.23
2019-02-15T09:25:47.333Z,3.17
2019-02-15T09:28:38.478Z,2.80
2019-02-15T09:31:07.273Z,3.07
2019-02-15T09:33:36.117Z,3.10
2019-02-15T09:36:05.053Z,3.13
2019-02-15T09:38:34.102Z,2.73
2019-02-15T09:41:02.740Z,3.03
2019-02-15T09:43:31.494Z,3.20
2019-02-15T09:45:59.877Z,3.33
2019-02-15T09:48:28.500Z,3.17
2019-02-15T09:50:57.167Z,2.90
2019-02-15T09:53:25.385Z,2.53
2019-02-15T09:55:53.850Z,2.83
2019-02-15T09:58:22.337Z,2.50
2019-02-15T10:01:15.783Z,2.87
2019-02-15T10:03:44.296Z,3.40
2019-02-15T10:06:12.596Z,2.80
2019-02-15T10:08:41.319Z,3.13
2019-02-15T10:11:10.570Z,2.70
2019-02-15T10:13:39.621Z,2.90
2019-02-15T10:16:08.369Z,2.93
2019-02-15T10:18:37.288Z,2.63
2019-02-15T10:21:25.079Z,2.47
2019-02-15T10:23:54.069Z,2.60
2019-02-15T10:26:22.690Z,2.30
2019-02-15T10:28:51.441Z,2.47
2019-02-15T10:31:20.341Z,2.90
2019-02-15T10:33:49.082Z,2.40
2019-02-15T10:36:18.948Z,1.80
2019-02-15T10:38:48.621Z,2.00
2019-02-15T10:41:17.643Z,2.10
2019-02-15T10:43:46.627Z,2.20
2019-02-15T10:46:15.574Z,2.23
2019-02-15T10:48:44.569Z,2.40
2019-02-15T10:51:13.607Z,2.40
2019-02-15T10:53:42.541Z,3.20
2019-02-15T10:56:11.329Z,2.23
2019-02-15T10:58:39.993Z,2.33
2019-02-15T11:01:08.606Z,2.17
2019-02-15T11:03:37.293Z,2.75
2019-02-15T11:06:06.044Z,2.07
2019-02-15T11:08:36.967Z,3.23
2019-02-15T11:11:05.861Z,1.80
2019-02-15T11:13:35.772Z,2.10
2019-02-15T11:16:04.765Z,1.90
2019-02-15T11:18:33.454Z,1.60
2019-02-15T11:21:02.443Z,1.93
2019-02-15T11:23:31.189Z,2.73
2019-02-15T11:25:59.816Z,2.13
2019-02-15T11:28:29.197Z,2.30
2019-02-15T11:30:57.657Z,2.33
2019-02-15T11:33:26.487Z,2.00
2019-02-15T11:35:55.174Z,1.67
2019-02-15T11:38:23.505Z,2.07
2019-02-15T11:40:52.086Z,2.20
2019-02-15T11:43:20.923Z,2.20
2019-02-15T11:45:50.358Z,2.30
2019-02-15T11:48:19.220Z,2.13
2019-02-15T11:50:48.070Z,2.50
2019-02-15T11:53:16.532Z,2.50
2019-02-15T11:55:45.045Z,2.20
2019-02-15T11:58:13.557Z,2.70
2019-02-15T12:00:42.007Z,2.10
2019-02-15T12:03:10.579Z,2.30
2019-02-15T12:05:39.141Z,2.33
2019-02-15T12:08:07.625Z,2.00
2019-02-15T12:10:36.418Z,2.27
2019-02-15T12:13:04.772Z,2.33
2019-02-15T12:15:33.182Z,4.77
2019-02-15T12:18:02.253Z,3.70
2019-02-15T12:20:30.812Z,2.20
2019-02-15T12:22:59.225Z,4.47
2019-02-15T12:25:28.276Z,7.33
2019-02-15T12:27:56.501Z,2.97
2019-02-15T12:30:25.089Z,1.70
2019-02-15T12:32:53.208Z,2.03
2019-02-15T12:35:22.261Z,3.20
2019-02-15T12:37:50.782Z,1.80
2019-02-15T12:40:19.504Z,2.55
2019-02-15T12:42:48.222Z,2.10
2019-02-15T12:45:17.455Z,1.80
2019-02-15T12:47:46.700Z,2.07
2019-02-15T12:50:15.415Z,1.70
2019-02-15T12:52:44.118Z,1.70
2019-02-15T12:55:12.410Z,2.20
2019-02-15T12:57:41.193Z,1.37
2019-02-15T13:00:11.024Z,2.83
2019-02-15T13:02:39.474Z,1.70
2019-02-15T13:05:11.738Z,1.30
2019-02-15T13:07:43.025Z,1.80
2019-02-15T13:10:13.500Z,1.60
2019-02-15T13:12:42.161Z,2.07
2019-02-15T13:15:11.039Z,2.05
2019-02-15T13:17:39.669Z,1.70
2019-02-15T13:20:08.524Z,1.67
2019-02-15T13:22:37.501Z,2.22
2019-02-15T13:25:06.157Z,2.52
2019-02-15T13:27:34.943Z,2.70
2019-02-15T13:30:04.129Z,2.50
2019-02-15T13:32:33.237Z,2.30
2019-02-15T13:35:01.837Z,2.87
2019-02-15T13:37:30.365Z,2.85
2019-02-15T13:39:59.014Z,2.80
2019-02-15T13:42:27.285Z,2.47
2019-02-15T13:44:55.670Z,2.30
2019-02-15T13:47:33.977Z,2.33
2019-02-15T13:50:00.944Z,2.70
2019-02-15T13:52:48.393Z,2.47
2019-02-15T13:55:19.721Z,2.67
2019-02-15T13:57:48.418Z,2.15
2019-02-15T14:00:17.029Z,2.60
2019-02-15T14:02:45.729Z,2.40
2019-02-15T14:05:14.482Z,2.58
2019-02-15T14:07:43.054Z,2.20
2019-02-15T14:10:11.470Z,2.83
2019-02-15T14:12:40.272Z,7.30
2019-02-15T14:15:09.170Z,3.00
2019-02-15T14:17:44.256Z,4.42
2019-02-15T14:20:09.381Z,3.25
2019-02-15T14:22:38.886Z,4.27
2019-02-15T14:25:07.801Z,2.70
2019-02-15T14:27:36.409Z,1.87
2019-02-15T14:30:05.900Z,2.30
2019-02-15T14:32:35.493Z,2.20
2019-02-15T14:35:03.958Z,2.20
2019-02-15T14:37:33.166Z,1.80
2019-02-15T14:40:02.097Z,1.70
2019-02-15T14:42:34.097Z,1.70
2019-02-15T14:47:55.028Z,2.10
2019-02-15T14:50:20.515Z,2.27
2019-02-15T14:52:49.565Z,1.90
2019-02-15T14:55:18.864Z,1.50
2019-02-15T14:57:47.757Z,1.70
2019-02-15T15:00:16.858Z,2.13
2019-02-15T15:02:46.490Z,2.07
2019-02-15T15:05:15.837Z,2.70
2019-02-15T15:07:45.321Z,2.47
2019-02-15T15:10:13.939Z,2.40
2019-02-15T15:12:43.155Z,1.80
2019-02-15T15:15:12.928Z,1.90
2019-02-15T15:17:41.999Z,1.67
2019-02-15T15:20:10.928Z,2.50
2019-02-15T15:22:40.547Z,3.67
2019-02-15T15:25:09.064Z,1.95
2019-02-15T15:27:37.550Z,2.80
2019-02-15T15:30:06.157Z,2.23
2019-02-15T15:32:35.196Z,1.73
2019-02-15T15:35:03.644Z,2.10
2019-02-15T15:37:32.269Z,2.10
2019-02-15T15:40:00.773Z,2.20
2019-02-15T15:42:29.142Z,2.80
2019-02-15T15:44:58.041Z,2.30
2019-02-15T15:47:26.629Z,2.80
2019-02-15T15:49:55.219Z,2.93
2019-02-15T15:52:27.684Z,2.40
2019-02-15T15:54:58.594Z,1.90
2019-02-15T15:57:27.221Z,2.00
2019-02-15T15:59:55.994Z,2.30
2019-02-15T16:02:24.734Z,1.90
2019-02-15T16:04:53.564Z,2.30
2019-02-15T16:07:22.665Z,2.50
2019-02-15T16:09:51.277Z,2.77
2019-02-15T16:12:19.641Z,2.43
2019-02-15T16:14:49.391Z,2.60
2019-02-15T16:17:18.591Z,3.00
2019-02-15T16:19:49.363Z,2.80
2019-02-15T16:22:17.906Z,3.27
2019-02-15T16:24:46.857Z,3.17
2019-02-15T16:27:16.280Z,2.60
2019-02-15T16:29:45.142Z,2.90
2019-02-15T16:32:13.629Z,3.57
2019-02-15T16:34:42.086Z,3.67
2019-02-15T16:37:10.577Z,4.57
2019-02-15T16:39:39.005Z,3.10
2019-02-15T16:42:07.520Z,2.07
2019-02-15T16:44:36.695Z,5.23
2019-02-15T16:47:05.684Z,4.63
2019-02-15T16:49:34.469Z,4.30
2019-02-15T16:52:03.017Z,3.70
2019-02-15T16:54:31.338Z,2.33
2019-02-15T16:56:59.686Z,3.13
2019-02-15T16:59:28.500Z,4.43
2019-02-15T17:01:57.311Z,3.87
2019-02-15T17:04:25.740Z,4.90
2019-02-15T17:06:54.196Z,6.50
2019-02-15T17:09:22.520Z,7.30
2019-02-15T17:11:51.061Z,5.90
2019-02-15T17:14:19.754Z,5.70
2019-02-15T17:16:48.271Z,4.50
2019-02-15T17:19:16.813Z,5.50
2019-02-15T17:21:45.390Z,6.13
2019-02-15T17:24:13.970Z,6.17
2019-02-15T17:26:42.686Z,4.07
2019-02-15T17:29:11.894Z,4.43
2019-02-15T17:31:40.601Z,6.03
2019-02-15T17:34:09.547Z,4.43
2019-02-15T17:36:38.291Z,4.20
2019-02-15T17:39:07.305Z,4.27
2019-02-15T17:41:37.794Z,8.60
2019-02-15T17:44:09.760Z,5.60
2019-02-15T17:46:39.757Z,17.35
2019-02-15T17:49:08.754Z,7.67
2019-02-15T17:51:37.085Z,7.57
2019-02-15T17:54:06.497Z,7.30
2019-02-15T17:56:34.977Z,9.73
2019-02-15T17:59:05.315Z,7.13
2019-02-15T18:01:34.805Z,4.93
2019-02-15T18:04:03.505Z,9.73
2019-02-15T18:06:32.360Z,11.43
2019-02-15T18:09:00.839Z,10.00
2019-02-15T18:11:32.611Z,9.83
2019-02-15T18:14:00.953Z,9.70
2019-02-15T18:16:29.533Z,8.03
2019-02-15T18:18:58.209Z,10.30
2019-02-15T18:21:27.112Z,9.17
2019-02-15T18:23:55.992Z,10.97
2019-02-15T18:26:25.209Z,8.13
2019-02-15T18:28:54.092Z,9.20
2019-02-15T18:31:22.901Z,8.10
2019-02-15T18:33:51.723Z,6.93
2019-02-15T18:36:21.496Z,9.00
2019-02-15T18:38:50.213Z,7.27
2019-02-15T18:41:19.057Z,4.50
2019-02-15T18:43:47.993Z,4.50
2019-02-15T18:46:16.692Z,8.07
2019-02-15T18:48:45.731Z,27.20
2019-02-15T18:51:14.985Z,7.33
2019-02-15T18:53:43.747Z,9.87
2019-02-15T18:56:12.312Z,4.53
2019-02-15T18:58:41.460Z,7.37
2019-02-15T19:01:10.637Z,9.30
2019-02-15T19:03:39.397Z,9.97
2019-02-15T19:06:08.194Z,5.97
2019-02-15T19:08:36.753Z,7.80
2019-02-15T19:11:05.756Z,5.53
2019-02-15T19:13:38.033Z,7.70
2019-02-15T19:16:07.237Z,6.77
2019-02-15T19:18:37.123Z,4.80
2019-02-15T19:21:06.303Z,5.73
2019-02-15T19:23:35.317Z,7.00
2019-02-15T19:26:03.917Z,11.17
2019-02-15T19:28:32.289Z,9.23
2019-02-15T19:31:01.031Z,5.97
2019-02-15T19:33:29.913Z,6.13
2019-02-15T19:35:58.748Z,4.60
2019-02-15T19:38:27.481Z,8.33
2019-02-15T19:40:56.086Z,11.37
2019-02-15T19:43:24.472Z,17.20
2019-02-15T19:45:53.961Z,4.90
2019-02-15T19:48:22.538Z,5.00
2019-02-15T19:50:51.089Z,5.97
2019-02-15T19:53:20.167Z,11.27
2019-02-15T19:55:49.099Z,9.03
2019-02-15T19:58:17.669Z,4.73
2019-02-15T20:00:46.749Z,4.60
2019-02-15T20:03:15.577Z,4.60
2019-02-15T20:05:44.514Z,7.20
2019-02-15T20:08:13.506Z,9.80
2019-02-15T20:10:45.693Z,9.37
2019-02-15T20:13:17.534Z,8.33
2019-02-15T20:15:46.289Z,5.33
2019-02-15T20:18:15.124Z,4.23
2019-02-15T20:20:44.030Z,4.53
2019-02-15T20:23:13.025Z,5.33
2019-02-15T20:25:41.579Z,5.10
2019-02-15T20:28:14.216Z,4.87
2019-02-15T20:30:41.372Z,8.50
2019-02-15T20:33:10.680Z,10.17
2019-02-15T20:35:39.461Z,6.70
2019-02-15T20:38:08.986Z,4.87
2019-02-15T20:40:38.288Z,3.97
2019-02-15T20:43:07.709Z,4.40
2019-02-15T20:45:36.713Z,2.33
2019-02-15T20:48:10.851Z,2.33
2019-02-15T20:50:35.846Z,2.57
2019-02-15T20:53:05.188Z,2.93
2019-02-15T20:55:34.209Z,3.53
2019-02-15T20:58:03.302Z,2.60
2019-02-15T21:00:35.231Z,2.83
2019-02-15T21:03:04.185Z,2.77
2019-02-15T21:08:21.881Z,3.30
2019-02-15T21:10:55.191Z,3.80
2019-02-15T21:13:21.298Z,4.13
2019-02-15T21:15:49.975Z,4.73
2019-02-15T21:18:18.453Z,3.07
2019-02-15T21:20:47.785Z,3.23
2019-02-15T21:23:16.465Z,3.20
2019-02-15T21:25:45.998Z,3.17
2019-02-15T21:28:15.276Z,4.47
2019-02-15T21:30:43.837Z,5.30
2019-02-15T21:33:12.464Z,4.73
2019-02-15T21:35:41.402Z,4.00
2019-02-15T21:38:09.969Z,3.27
2019-02-15T21:40:38.429Z,3.73
2019-02-15T21:43:08.724Z,4.00
2019-02-15T21:45:37.577Z,2.90
2019-02-15T21:48:06.102Z,3.00
2019-02-15T21:50:35.098Z,3.93
2019-02-15T21:53:04.087Z,4.53
2019-02-15T21:55:32.661Z,3.87
2019-02-15T21:58:01.834Z,3.97
2019-02-15T22:00:31.987Z,3.53
2019-02-15T22:03:00.980Z,4.20
2019-02-15T22:05:29.741Z,4.10
2019-02-15T22:07:58.601Z,4.30
2019-02-15T22:10:27.012Z,4.83
2019-02-15T22:13:00.825Z,3.00
2019-02-15T22:15:29.522Z,3.37
2019-02-15T22:17:57.928Z,3.17
2019-02-15T22:20:27.166Z,2.73
2019-02-15T22:22:55.720Z,3.87
2019-02-15T22:25:25.263Z,2.80
2019-02-15T22:27:53.903Z,2.77
2019-02-15T22:30:22.345Z,3.30
2019-02-15T22:32:51.355Z,3.50
2019-02-15T22:35:19.972Z,3.73
2019-02-15T22:37:48.193Z,3.07
2019-02-15T22:40:35.824Z,3.53
2019-02-15T22:43:15.158Z,3.77
2019-02-15T22:45:43.915Z,3.50
2019-02-15T22:48:12.858Z,3.20
2019-02-15T22:50:41.265Z,3.57
2019-02-15T22:53:09.815Z,3.83
2019-02-15T22:55:38.373Z,4.10
2019-02-15T22:58:06.923Z,3.63
2019-02-15T23:00:51.285Z,3.20
2019-02-15T23:03:21.861Z,3.27
2019-02-15T23:05:50.715Z,4.00
2019-02-15T23:08:19.282Z,3.53
2019-02-15T23:10:48.030Z,4.10
2019-02-15T23:13:16.870Z,4.27
2019-02-15T23:15:45.316Z,3.90
2019-02-15T23:18:13.687Z,4.07
2019-02-15T23:20:45.362Z,4.07
2019-02-15T23:23:12.702Z,3.90
2019-02-15T23:25:41.689Z,3.60
2019-02-15T23:28:10.180Z,4.03
2019-02-15T23:30:38.381Z,4.57
2019-02-15T23:33:06.701Z,3.87
2019-02-15T23:35:34.884Z,4.20
2019-02-15T23:38:03.578Z,3.97
2019-02-15T23:40:32.213Z,4.10
2019-02-15T23:43:01.197Z,4.27
2019-02-15T23:45:29.892Z,3.90
2019-02-15T23:47:58.239Z,3.63
2019-02-15T23:50:26.906Z,3.47
2019-02-15T23:52:55.364Z,3.70
2019-02-15T23:55:23.925Z,3.67
2019-02-15T23:57:52.441Z,3.63
